sensor_id;sensor_type;location;lat;lon;timestamp;pressure;altitude;pressure_sealevel;temperature;humidity
76478;BME280;65309;49.790;18.972;2024-03-08T00:03:45;60201.06;;;-145.46;100.00
76478;BME280;65309;49.790;18.972;2024-03-08T00:08:47;60173.72;;;-145.46;100.00
76478;BME280;65309;49.790;18.972;2024-03-08T00:13:51;60228.38;;;-145.46;100.00
76478;BME280;65309;49.790;18.972;2024-03-08T00:18:54;60188.44;;;-145.46;100.00
76478;BME280;65309;49.790;18.972;2024-03-08T00:23:56;60203.16;;;-145.46;100.00
76478;BME280;65309;49.790;18.972;2024-03-08T00:29:00;60207.34;;;-145.46;100.00
76478;BME280;65309;49.790;18.972;2024-03-08T00:34:02;60198.94;;;-145.46;100.00
76478;BME280;65309;49.790;18.972;2024-03-08T00:39:05;60190.53;;;-145.46;100.00
76478;BME280;65309;49.790;18.972;2024-03-08T00:44:10;60205.25;;;-145.46;100.00
76478;BME280;65309;49.790;18.972;2024-03-08T00:49:12;60188.44;;;-145.46;100.00
76478;BME280;65309;49.790;18.972;2024-03-08T00:54:14;60188.44;;;-145.46;100.00
76478;BME280;65309;49.790;18.972;2024-03-08T00:59:20;60219.97;;;-145.46;100.00
76478;BME280;65309;49.790;18.972;2024-03-08T01:04:22;60159.00;;;-145.46;100.00
76478;BME280;65309;49.790;18.972;2024-03-08T01:09:25;60192.63;;;-145.46;100.00
76478;BME280;65309;49.790;18.972;2024-03-08T01:14:30;60159.00;;;-145.46;100.00
76478;BME280;65309;49.790;18.972;2024-03-08T01:19:33;60245.19;;;-145.46;100.00
76478;BME280;65309;49.790;18.972;2024-03-08T01:24:36;60201.06;;;-145.46;100.00
76478;BME280;65309;49.790;18.972;2024-03-08T01:29:40;60192.63;;;-145.46;100.00
76478;BME280;65309;49.790;18.972;2024-03-08T01:34:42;60201.06;;;-145.46;100.00
76478;BME280;65309;49.790;18.972;2024-03-08T01:39:46;60217.88;;;-145.46;100.00
76478;BME280;65309;49.790;18.972;2024-03-08T01:44:50;60213.66;;;-145.46;100.00
76478;BME280;65309;49.790;18.972;2024-03-08T01:49:53;60198.94;;;-145.46;100.00
76478;BME280;65309;49.790;18.972;2024-03-08T01:54:55;60207.34;;;-145.46;100.00
76478;BME280;65309;49.790;18.972;2024-03-08T02:00:00;60173.72;;;-145.46;100.00
76478;BME280;65309;49.790;18.972;2024-03-08T02:05:06;60224.19;;;-145.46;100.00
76478;BME280;65309;49.790;18.972;2024-03-08T02:10:08;60209.47;;;-145.46;100.00
76478;BME280;65309;49.790;18.972;2024-03-08T02:15:12;60175.81;;;-145.46;100.00
76478;BME280;65309;49.790;18.972;2024-03-08T02:20:14;60207.34;;;-145.46;100.00
76478;BME280;65309;49.790;18.972;2024-03-08T02:25:18;60213.66;;;-145.46;100.00
76478;BME280;65309;49.790;18.972;2024-03-08T02:30:20;60156.91;;;-145.46;100.00
76478;BME280;65309;49.790;18.972;2024-03-08T02:35:23;60207.34;;;-145.46;100.00
76478;BME280;65309;49.790;18.972;2024-03-08T02:40:26;60234.69;;;-145.46;100.00
76478;BME280;65309;49.790;18.972;2024-03-08T02:45:28;60226.28;;;-145.46;100.00
76478;BME280;65309;49.790;18.972;2024-03-08T02:50:31;60171.63;;;-145.46;100.00
76478;BME280;65309;49.790;18.972;2024-03-08T02:55:35;60198.94;;;-145.46;100.00
76478;BME280;65309;49.790;18.972;2024-03-08T03:00:38;60175.81;;;-145.46;100.00
76478;BME280;65309;49.790;18.972;2024-03-08T03:05:41;60165.31;;;-145.46;100.00
76478;BME280;65309;49.790;18.972;2024-03-08T03:10:51;60243.09;;;-145.46;100.00
76478;BME280;65309;49.790;18.972;2024-03-08T03:15:53;60201.06;;;-145.46;100.00
76478;BME280;65309;49.790;18.972;2024-03-08T03:20:55;60222.06;;;-145.46;100.00
76478;BME280;65309;49.790;18.972;2024-03-08T03:25:59;60249.41;;;-145.46;100.00
76478;BME280;65309;49.790;18.972;2024-03-08T03:31:02;60213.66;;;-145.46;100.00
76478;BME280;65309;49.790;18.972;2024-03-08T03:36:04;60186.34;;;-145.46;100.00
76478;BME280;65309;49.790;18.972;2024-03-08T03:41:13;60217.88;;;-145.46;100.00
76478;BME280;65309;49.790;18.972;2024-03-08T03:46:16;60234.69;;;-145.46;100.00
76478;BME280;65309;49.790;18.972;2024-03-08T03:51:18;60167.41;;;-145.46;100.00
76478;BME280;65309;49.790;18.972;2024-03-08T03:56:26;60186.34;;;-145.46;100.00
76478;BME280;65309;49.790;18.972;2024-03-08T04:01:29;60188.44;;;-145.46;100.00
76478;BME280;65309;49.790;18.972;2024-03-08T04:06:31;60222.06;;;-145.46;100.00
76478;BME280;65309;49.790;18.972;2024-03-08T04:11:35;60255.72;;;-145.46;100.00
76478;BME280;65309;49.790;18.972;2024-03-08T04:16:37;60251.50;;;-145.46;100.00
76478;BME280;65309;49.790;18.972;2024-03-08T04:21:39;60217.88;;;-145.46;100.00
76478;BME280;65309;49.790;18.972;2024-03-08T04:26:43;60186.34;;;-145.46;100.00
76478;BME280;65309;49.790;18.972;2024-03-08T04:31:45;60209.47;;;-145.46;100.00
76478;BME280;65309;49.790;18.972;2024-03-08T04:36:48;60209.47;;;-145.46;100.00
76478;BME280;65309;49.790;18.972;2024-03-08T04:41:52;60150.59;;;-145.46;100.00
76478;BME280;65309;49.790;18.972;2024-03-08T04:46:57;60180.03;;;-145.46;100.00
76478;BME280;65309;49.790;18.972;2024-03-08T04:52:00;60243.09;;;-145.46;100.00
76478;BME280;65309;49.790;18.972;2024-03-08T04:57:06;60201.06;;;-145.46;100.00
76478;BME280;65309;49.790;18.972;2024-03-08T05:02:10;60236.78;;;-145.46;100.00
76478;BME280;65309;49.790;18.972;2024-03-08T05:07:13;60207.34;;;-145.46;100.00
76478;BME280;65309;49.790;18.972;2024-03-08T05:12:17;60201.06;;;-145.46;100.00
76478;BME280;65309;49.790;18.972;2024-03-08T05:17:19;60217.88;;;-145.46;100.00
76478;BME280;65309;49.790;18.972;2024-03-08T05:22:21;60167.41;;;-145.46;100.00
76478;BME280;65309;49.790;18.972;2024-03-08T05:27:25;60184.22;;;-145.46;100.00
76478;BME280;65309;49.790;18.972;2024-03-08T05:32:27;60224.19;;;-145.46;100.00
76478;BME280;65309;49.790;18.972;2024-03-08T05:37:32;60207.34;;;-145.46;100.00
76478;BME280;65309;49.790;18.972;2024-03-08T05:42:36;60226.28;;;-145.46;100.00
76478;BME280;65309;49.790;18.972;2024-03-08T05:47:39;60228.38;;;-145.46;100.00
76478;BME280;65309;49.790;18.972;2024-03-08T05:52:41;60173.72;;;-145.46;100.00
76478;BME280;65309;49.790;18.972;2024-03-08T05:57:44;60188.44;;;-145.46;100.00
76478;BME280;65309;49.790;18.972;2024-03-08T06:02:47;60209.47;;;-145.46;100.00
76478;BME280;65309;49.790;18.972;2024-03-08T06:07:49;60203.16;;;-145.46;100.00
76478;BME280;65309;49.790;18.972;2024-03-08T06:12:53;60192.63;;;-145.46;100.00
76478;BME280;65309;49.790;18.972;2024-03-08T06:17:56;60224.19;;;-145.46;100.00
76478;BME280;65309;49.790;18.972;2024-03-08T06:22:59;60163.22;;;-145.46;100.00
76478;BME280;65309;49.790;18.972;2024-03-08T06:28:03;60213.66;;;-145.46;100.00
76478;BME280;65309;49.790;18.972;2024-03-08T06:33:07;60203.16;;;-145.46;100.00
76478;BME280;65309;49.790;18.972;2024-03-08T06:38:10;60192.63;;;-145.46;100.00
76478;BME280;65309;49.790;18.972;2024-03-08T06:43:15;60159.00;;;-145.46;100.00
76478;BME280;65309;49.790;18.972;2024-03-08T06:48:20;60201.06;;;-145.46;100.00
76478;BME280;65309;49.790;18.972;2024-03-08T06:53:22;60165.31;;;-145.46;100.00
76478;BME280;65309;49.790;18.972;2024-03-08T06:58:30;60209.47;;;-145.46;100.00
76478;BME280;65309;49.790;18.972;2024-03-08T07:03:32;60192.63;;;-145.46;100.00
76478;BME280;65309;49.790;18.972;2024-03-08T07:08:35;60213.66;;;-145.46;100.00
76478;BME280;65309;49.790;18.972;2024-03-08T07:13:38;60188.44;;;-145.46;100.00
76478;BME280;65309;49.790;18.972;2024-03-08T07:18:41;60201.06;;;-145.46;100.00
76478;BME280;65309;49.790;18.972;2024-03-08T07:23:46;60190.53;;;-145.46;100.00
76478;BME280;65309;49.790;18.972;2024-03-08T07:28:50;60209.47;;;-145.46;100.00
76478;BME280;65309;49.790;18.972;2024-03-08T07:33:52;60209.47;;;-145.46;100.00
76478;BME280;65309;49.790;18.972;2024-03-08T07:38:55;60182.13;;;-145.46;100.00
76478;BME280;65309;49.790;18.972;2024-03-08T07:43:59;60188.44;;;-145.46;100.00
76478;BME280;65309;49.790;18.972;2024-03-08T07:49:02;60213.66;;;-145.46;100.00
76478;BME280;65309;49.790;18.972;2024-03-08T07:54:05;60188.44;;;-145.46;100.00
76478;BME280;65309;49.790;18.972;2024-03-08T07:59:08;60213.66;;;-145.46;100.00
76478;BME280;65309;49.790;18.972;2024-03-08T08:04:11;60205.25;;;-145.46;100.00
76478;BME280;65309;49.790;18.972;2024-03-08T08:09:14;60177.94;;;-145.46;100.00
76478;BME280;65309;49.790;18.972;2024-03-08T08:14:18;60182.13;;;-145.46;99.63
76478;BME280;65309;49.790;18.972;2024-03-08T08:19:22;60159.00;;;-145.46;98.50
76478;BME280;65309;49.790;18.972;2024-03-08T08:24:24;60184.22;;;-145.46;95.76
76478;BME280;65309;49.790;18.972;2024-03-08T08:29:29;60167.41;;;-145.46;94.53
76478;BME280;65309;49.790;18.972;2024-03-08T08:34:32;60159.00;;;-145.46;94.41
76478;BME280;65309;49.790;18.972;2024-03-08T08:39:34;60184.22;;;-145.46;93.99
76478;BME280;65309;49.790;18.972;2024-03-08T08:44:38;60146.38;;;-145.46;92.56
76478;BME280;65309;49.790;18.972;2024-03-08T08:49:40;60142.19;;;-145.46;94.72
76478;BME280;65309;49.790;18.972;2024-03-08T08:54:42;60184.22;;;-145.46;93.00
76478;BME280;65309;49.790;18.972;2024-03-08T08:59:46;60159.00;;;-145.46;94.39
76478;BME280;65309;49.790;18.972;2024-03-08T09:04:48;60129.56;;;-145.46;94.45
76478;BME280;65309;49.790;18.972;2024-03-08T09:09:50;60129.56;;;-145.46;94.15
76478;BME280;65309;49.790;18.972;2024-03-08T09:14:54;60142.19;;;-145.46;91.84
76478;BME280;65309;49.790;18.972;2024-03-08T09:19:57;60161.09;;;-145.46;89.92
76478;BME280;65309;49.790;18.972;2024-03-08T09:25:04;60180.03;;;-145.46;92.18
76478;BME280;65309;49.790;18.972;2024-03-08T09:30:10;60171.63;;;-145.46;91.53
76478;BME280;65309;49.790;18.972;2024-03-08T09:35:15;60163.22;;;-145.46;92.74
76478;BME280;65309;49.790;18.972;2024-03-08T09:40:18;60148.50;;;-145.46;91.27
76478;BME280;65309;49.790;18.972;2024-03-08T09:45:24;60163.22;;;-145.46;92.74
76478;BME280;65309;49.790;18.972;2024-03-08T09:50:28;60142.19;;;-145.46;92.63
76478;BME280;65309;49.790;18.972;2024-03-08T09:55:31;60140.09;;;-145.46;91.52
76478;BME280;65309;49.790;18.972;2024-03-08T10:00:38;60184.22;;;-145.46;91.69
76478;BME280;65309;49.790;18.972;2024-03-08T10:05:40;60125.38;;;-145.46;90.24
76478;BME280;65309;49.790;18.972;2024-03-08T10:10:43;60163.22;;;-145.46;91.93
76478;BME280;65309;49.790;18.972;2024-03-08T10:15:47;60163.22;;;-145.46;91.68
76478;BME280;65309;49.790;18.972;2024-03-08T10:21:02;60169.50;;;-145.46;92.69
76478;BME280;65309;49.790;18.972;2024-03-08T10:26:13;60167.41;;;-145.46;94.24
76478;BME280;65309;49.790;18.972;2024-03-08T10:31:19;60188.44;;;-145.46;93.87
76478;BME280;65309;49.790;18.972;2024-03-08T10:36:22;60180.03;;;-145.46;93.82
76478;BME280;65309;49.790;18.972;2024-03-08T10:41:26;60127.47;;;-145.46;95.22
76478;BME280;65309;49.790;18.972;2024-03-08T10:46:43;60201.06;;;-145.46;95.60
76478;BME280;65309;49.790;18.972;2024-03-08T10:51:49;60146.38;;;-145.46;95.94
76478;BME280;65309;49.790;18.972;2024-03-08T10:56:54;60159.00;;;-145.46;92.77
76478;BME280;65309;49.790;18.972;2024-03-08T11:01:58;60159.00;;;-145.46;93.17
76478;BME280;65309;49.790;18.972;2024-03-08T11:07:01;60156.91;;;-145.46;91.34
76478;BME280;65309;49.790;18.972;2024-03-08T11:12:26;60169.50;;;-145.46;92.82
76478;BME280;65309;49.790;18.972;2024-03-08T11:17:46;60205.25;;;-145.46;93.97
76478;BME280;65309;49.790;18.972;2024-03-08T11:22:52;60171.63;;;-145.46;90.91
76478;BME280;65309;49.790;18.972;2024-03-08T11:28:09;60159.00;;;-145.46;93.29
76478;BME280;65309;49.790;18.972;2024-03-08T11:33:16;60167.41;;;-145.46;90.91
76478;BME280;65309;49.790;18.972;2024-03-08T11:38:18;60163.22;;;-145.46;93.63
76478;BME280;65309;49.790;18.972;2024-03-08T11:43:21;60169.50;;;-145.46;91.83
76478;BME280;65309;49.790;18.972;2024-03-08T11:48:25;60156.91;;;-145.46;92.03
76478;BME280;65309;49.790;18.972;2024-03-08T11:53:28;60154.81;;;-145.46;92.38
76478;BME280;65309;49.790;18.972;2024-03-08T11:58:30;60163.22;;;-145.46;92.41
76478;BME280;65309;49.790;18.972;2024-03-08T12:03:34;60129.56;;;-145.46;91.96
76478;BME280;65309;49.790;18.972;2024-03-08T12:08:36;60196.84;;;-145.46;92.26
76478;BME280;65309;49.790;18.972;2024-03-08T12:13:39;60167.41;;;-145.46;92.97
76478;BME280;65309;49.790;18.972;2024-03-08T12:18:44;60163.22;;;-145.46;93.37
76478;BME280;65309;49.790;18.972;2024-03-08T12:23:46;60192.63;;;-145.46;90.86
76478;BME280;65309;49.790;18.972;2024-03-08T12:29:14;60167.41;;;-145.46;91.55
76478;BME280;65309;49.790;18.972;2024-03-08T12:34:20;60146.38;;;-145.46;90.97
76478;BME280;65309;49.790;18.972;2024-03-08T12:39:23;60154.81;;;-145.46;90.80
76478;BME280;65309;49.790;18.972;2024-03-08T12:44:29;60167.41;;;-145.46;91.39
76478;BME280;65309;49.790;18.972;2024-03-08T12:49:33;60182.13;;;-145.46;93.07
76478;BME280;65309;49.790;18.972;2024-03-08T12:54:35;60163.22;;;-145.46;92.68
76478;BME280;65309;49.790;18.972;2024-03-08T12:59:37;60135.88;;;-145.46;92.12
76478;BME280;65309;49.790;18.972;2024-03-08T13:04:43;60154.81;;;-145.46;93.39
76478;BME280;65309;49.790;18.972;2024-03-08T13:09:46;60184.22;;;-145.46;93.64
76478;BME280;65309;49.790;18.972;2024-03-08T13:14:48;60161.09;;;-145.46;93.43
76478;BME280;65309;49.790;18.972;2024-03-08T13:19:52;60150.59;;;-145.46;93.39
76478;BME280;65309;49.790;18.972;2024-03-08T13:24:58;60180.03;;;-145.46;92.38
76478;BME280;65309;49.790;18.972;2024-03-08T13:30:03;60165.31;;;-145.46;92.45
76478;BME280;65309;49.790;18.972;2024-03-08T13:35:08;60188.44;;;-145.46;92.68
76478;BME280;65309;49.790;18.972;2024-03-08T13:40:14;60129.56;;;-145.46;92.77
76478;BME280;65309;49.790;18.972;2024-03-08T13:45:17;60148.50;;;-145.46;93.71
76478;BME280;65309;49.790;18.972;2024-03-08T13:50:28;60180.03;;;-145.46;92.98
76478;BME280;65309;49.790;18.972;2024-03-08T13:55:32;60175.81;;;-145.46;93.26
76478;BME280;65309;49.790;18.972;2024-03-08T14:00:35;60129.56;;;-145.46;93.32
76478;BME280;65309;49.790;18.972;2024-03-08T14:05:40;60152.69;;;-145.46;93.00
76478;BME280;65309;49.790;18.972;2024-03-08T14:10:44;60213.66;;;-145.46;93.31
76478;BME280;65309;49.790;18.972;2024-03-08T14:15:49;60150.59;;;-145.46;93.17
76478;BME280;65309;49.790;18.972;2024-03-08T14:20:52;60161.09;;;-145.46;93.00
76478;BME280;65309;49.790;18.972;2024-03-08T14:25:55;60186.34;;;-145.46;93.34
76478;BME280;65309;49.790;18.972;2024-03-08T14:30:57;60171.63;;;-145.46;92.87
76478;BME280;65309;49.790;18.972;2024-03-08T14:36:01;60167.41;;;-145.46;93.85
76478;BME280;65309;49.790;18.972;2024-03-08T14:41:04;60159.00;;;-145.46;94.32
76478;BME280;65309;49.790;18.972;2024-03-08T14:46:08;60180.03;;;-145.46;95.67
76478;BME280;65309;49.790;18.972;2024-03-08T14:51:12;60192.63;;;-145.46;95.26
76478;BME280;65309;49.790;18.972;2024-03-08T14:56:16;60167.41;;;-145.46;95.66
76478;BME280;65309;49.790;18.972;2024-03-08T15:01:18;60171.63;;;-145.46;96.67
76478;BME280;65309;49.790;18.972;2024-03-08T15:06:28;60129.56;;;-145.46;97.22
76478;BME280;65309;49.790;18.972;2024-03-08T15:11:33;60171.63;;;-145.46;97.16
76478;BME280;65309;49.790;18.972;2024-03-08T15:16:36;60171.63;;;-145.46;97.16
76478;BME280;65309;49.790;18.972;2024-03-08T15:21:40;60167.41;;;-145.46;98.12
76478;BME280;65309;49.790;18.972;2024-03-08T15:26:45;60169.50;;;-145.46;98.99
76478;BME280;65309;49.790;18.972;2024-03-08T15:31:50;60180.03;;;-145.46;99.48
76478;BME280;65309;49.790;18.972;2024-03-08T15:36:57;60205.25;;;-145.46;99.79
76478;BME280;65309;49.790;18.972;2024-03-08T15:42:04;60171.63;;;-145.46;100.00
76478;BME280;65309;49.790;18.972;2024-03-08T15:47:07;60167.41;;;-145.46;100.00
76478;BME280;65309;49.790;18.972;2024-03-08T15:52:14;60175.81;;;-145.46;100.00
76478;BME280;65309;49.790;18.972;2024-03-08T15:57:16;60142.19;;;-145.46;100.00
76478;BME280;65309;49.790;18.972;2024-03-08T16:02:22;60188.44;;;-145.46;100.00
76478;BME280;65309;49.790;18.972;2024-03-08T16:07:28;60205.25;;;-145.46;100.00
76478;BME280;65309;49.790;18.972;2024-03-08T16:12:30;60182.13;;;-145.46;100.00
76478;BME280;65309;49.790;18.972;2024-03-08T16:17:36;60207.34;;;-145.46;100.00
76478;BME280;65309;49.790;18.972;2024-03-08T16:22:42;60169.50;;;-145.46;100.00
76478;BME280;65309;49.790;18.972;2024-03-08T16:27:45;60222.06;;;-145.46;100.00
76478;BME280;65309;49.790;18.972;2024-03-08T16:32:49;60226.28;;;-145.46;100.00
76478;BME280;65309;49.790;18.972;2024-03-08T16:37:57;60142.19;;;-145.46;100.00
76478;BME280;65309;49.790;18.972;2024-03-08T16:43:00;60180.03;;;-145.46;100.00
76478;BME280;65309;49.790;18.972;2024-03-08T16:48:02;60198.94;;;-145.46;100.00
76478;BME280;65309;49.790;18.972;2024-03-08T16:53:07;60213.66;;;-145.46;100.00
76478;BME280;65309;49.790;18.972;2024-03-08T16:58:09;60186.34;;;-145.46;100.00
76478;BME280;65309;49.790;18.972;2024-03-08T17:03:17;60205.25;;;-145.46;100.00
76478;BME280;65309;49.790;18.972;2024-03-08T17:08:20;60205.25;;;-145.46;100.00
76478;BME280;65309;49.790;18.972;2024-03-08T17:13:23;60234.69;;;-145.46;100.00
76478;BME280;65309;49.790;18.972;2024-03-08T17:18:26;60192.63;;;-145.46;100.00
76478;BME280;65309;49.790;18.972;2024-03-08T17:23:31;60230.47;;;-145.46;100.00
76478;BME280;65309;49.790;18.972;2024-03-08T17:28:33;60215.75;;;-145.46;100.00
76478;BME280;65309;49.790;18.972;2024-03-08T17:33:39;60165.31;;;-145.46;100.00
76478;BME280;65309;49.790;18.972;2024-03-08T17:38:47;60207.34;;;-145.46;100.00
76478;BME280;65309;49.790;18.972;2024-03-08T17:43:53;60205.25;;;-145.46;100.00
76478;BME280;65309;49.790;18.972;2024-03-08T17:48:55;60232.59;;;-145.46;100.00
76478;BME280;65309;49.790;18.972;2024-03-08T17:53:59;60192.63;;;-145.46;100.00
76478;BME280;65309;49.790;18.972;2024-03-08T17:59:02;60184.22;;;-145.46;100.00
76478;BME280;65309;49.790;18.972;2024-03-08T18:04:06;60259.91;;;-145.46;100.00
76478;BME280;65309;49.790;18.972;2024-03-08T18:09:12;60219.97;;;-145.46;100.00
76478;BME280;65309;49.790;18.972;2024-03-08T18:14:15;60171.63;;;-145.46;100.00
76478;BME280;65309;49.790;18.972;2024-03-08T18:19:18;60226.28;;;-145.46;100.00
76478;BME280;65309;49.790;18.972;2024-03-08T18:24:23;60217.88;;;-145.46;100.00
76478;BME280;65309;49.790;18.972;2024-03-08T18:29:25;60209.47;;;-145.46;100.00
76478;BME280;65309;49.790;18.972;2024-03-08T18:34:27;60205.25;;;-145.46;100.00
76478;BME280;65309;49.790;18.972;2024-03-08T18:39:34;60186.34;;;-145.46;100.00
76478;BME280;65309;49.790;18.972;2024-03-08T18:44:41;60188.44;;;-145.46;100.00
76478;BME280;65309;49.790;18.972;2024-03-08T18:49:44;60205.25;;;-145.46;100.00
76478;BME280;65309;49.790;18.972;2024-03-08T18:54:50;60180.03;;;-145.46;100.00
76478;BME280;65309;49.790;18.972;2024-03-08T18:59:56;60215.75;;;-145.46;100.00
76478;BME280;65309;49.790;18.972;2024-03-08T19:04:59;60192.63;;;-145.46;100.00
76478;BME280;65309;49.790;18.972;2024-03-08T19:10:03;60188.44;;;-145.46;100.00
76478;BME280;65309;49.790;18.972;2024-03-08T19:15:09;60209.47;;;-145.46;100.00
76478;BME280;65309;49.790;18.972;2024-03-08T19:20:12;60213.66;;;-145.46;100.00
76478;BME280;65309;49.790;18.972;2024-03-08T19:25:17;60203.16;;;-145.46;100.00
76478;BME280;65309;49.790;18.972;2024-03-08T19:30:20;60213.66;;;-145.46;100.00
76478;BME280;65309;49.790;18.972;2024-03-08T19:35:30;60211.56;;;-145.46;100.00
76478;BME280;65309;49.790;18.972;2024-03-08T19:40:34;60156.91;;;-145.46;100.00
76478;BME280;65309;49.790;18.972;2024-03-08T19:45:39;60222.06;;;-145.46;100.00
76478;BME280;65309;49.790;18.972;2024-03-08T19:50:42;60184.22;;;-145.46;100.00
76478;BME280;65309;49.790;18.972;2024-03-08T19:55:47;60192.63;;;-145.46;100.00
76478;BME280;65309;49.790;18.972;2024-03-08T20:00:53;60234.69;;;-145.46;100.00
76478;BME280;65309;49.790;18.972;2024-03-08T20:06:05;60201.06;;;-145.46;100.00
76478;BME280;65309;49.790;18.972;2024-03-08T20:11:09;60201.06;;;-145.46;100.00
76478;BME280;65309;49.790;18.972;2024-03-08T20:16:13;60255.72;;;-145.46;100.00
76478;BME280;65309;49.790;18.972;2024-03-08T20:21:15;60201.06;;;-145.46;100.00
76478;BME280;65309;49.790;18.972;2024-03-08T20:26:19;60228.38;;;-145.46;100.00
76478;BME280;65309;49.790;18.972;2024-03-08T20:31:25;60217.88;;;-145.46;100.00
76478;BME280;65309;49.790;18.972;2024-03-08T20:36:27;60224.19;;;-145.46;100.00
76478;BME280;65309;49.790;18.972;2024-03-08T20:41:31;60213.66;;;-145.46;100.00
76478;BME280;65309;49.790;18.972;2024-03-08T20:46:33;60171.63;;;-145.46;100.00
76478;BME280;65309;49.790;18.972;2024-03-08T20:51:36;60213.66;;;-145.46;100.00
76478;BME280;65309;49.790;18.972;2024-03-08T20:56:40;60228.38;;;-145.46;100.00
76478;BME280;65309;49.790;18.972;2024-03-08T21:01:43;60211.56;;;-145.46;100.00
76478;BME280;65309;49.790;18.972;2024-03-08T21:06:45;60186.34;;;-145.46;100.00
76478;BME280;65309;49.790;18.972;2024-03-08T21:11:49;60190.53;;;-145.46;100.00
76478;BME280;65309;49.790;18.972;2024-03-08T21:16:52;60205.25;;;-145.46;100.00
76478;BME280;65309;49.790;18.972;2024-03-08T21:21:54;60249.41;;;-145.46;100.00
76478;BME280;65309;49.790;18.972;2024-03-08T21:26:58;60243.09;;;-145.46;100.00
76478;BME280;65309;49.790;18.972;2024-03-08T21:32:00;60211.56;;;-145.46;100.00
76478;BME280;65309;49.790;18.972;2024-03-08T21:37:06;60184.22;;;-145.46;100.00
76478;BME280;65309;49.790;18.972;2024-03-08T21:42:10;60226.28;;;-145.46;100.00
76478;BME280;65309;49.790;18.972;2024-03-08T21:47:12;60217.88;;;-145.46;100.00
76478;BME280;65309;49.790;18.972;2024-03-08T21:52:14;60217.88;;;-145.46;100.00
76478;BME280;65309;49.790;18.972;2024-03-08T21:57:18;60243.09;;;-145.46;100.00
76478;BME280;65309;49.790;18.972;2024-03-08T22:02:21;60243.09;;;-145.46;100.00
76478;BME280;65309;49.790;18.972;2024-03-08T22:07:23;60188.44;;;-145.46;100.00
76478;BME280;65309;49.790;18.972;2024-03-08T22:12:27;60196.84;;;-145.46;100.00
76478;BME280;65309;49.790;18.972;2024-03-08T22:17:32;60211.56;;;-145.46;100.00
76478;BME280;65309;49.790;18.972;2024-03-08T22:22:34;60238.88;;;-145.46;100.00
76478;BME280;65309;49.790;18.972;2024-03-08T22:27:40;60268.31;;;-145.46;100.00
76478;BME280;65309;49.790;18.972;2024-03-08T22:32:44;60217.88;;;-145.46;100.00
76478;BME280;65309;49.790;18.972;2024-03-08T22:37:46;60194.75;;;-145.46;100.00
76478;BME280;65309;49.790;18.972;2024-03-08T22:42:51;60247.31;;;-145.46;100.00
76478;BME280;65309;49.790;18.972;2024-03-08T22:47:53;60173.72;;;-145.46;100.00
76478;BME280;65309;49.790;18.972;2024-03-08T22:52:56;60228.38;;;-145.46;100.00
76478;BME280;65309;49.790;18.972;2024-03-08T22:58:00;60203.16;;;-145.46;100.00
76478;BME280;65309;49.790;18.972;2024-03-08T23:03:03;60209.47;;;-145.46;100.00
76478;BME280;65309;49.790;18.972;2024-03-08T23:08:10;60186.34;;;-145.46;100.00
76478;BME280;65309;49.790;18.972;2024-03-08T23:13:14;60213.66;;;-145.46;100.00
76478;BME280;65309;49.790;18.972;2024-03-08T23:18:18;60213.66;;;-145.46;100.00
76478;BME280;65309;49.790;18.972;2024-03-08T23:23:22;60249.41;;;-145.46;100.00
76478;BME280;65309;49.790;18.972;2024-03-08T23:28:25;60209.47;;;-145.46;100.00
76478;BME280;65309;49.790;18.972;2024-03-08T23:33:31;60234.69;;;-145.46;100.00
76478;BME280;65309;49.790;18.972;2024-03-08T23:38:34;60226.28;;;-145.46;100.00
76478;BME280;65309;49.790;18.972;2024-03-08T23:43:38;60201.06;;;-145.46;100.00
76478;BME280;65309;49.790;18.972;2024-03-08T23:48:42;60213.66;;;-145.46;100.00
76478;BME280;65309;49.790;18.972;2024-03-08T23:53:45;60217.88;;;-145.46;100.00
76478;BME280;65309;49.790;18.972;2024-03-08T23:58:50;60190.53;;;-145.46;100.00
